Time;durP1;ratioP1;P1;durP2;ratioP2;P2;SDS_P1;SDS_P2;PMS_P1;PMS_P2;Temp;Humidity;BMP_temperature;BMP_pressure;BME280_temperature;BME280_humidity;BME280_pressure;Samples;Min_cycle;Max_cycle;Signal;HPM_P1;HPM_P2
2021/05/19 00:00:48;;;;;;;0.55;0.40;;;;;;;-142.37;100.00;59669.53;5074313;28;20025;-61
2021/05/19 00:03:13;;;;;;;1.95;0.50;;;;;;;-142.37;100.00;59669.53;5074572;28;20107;-61
2021/05/19 00:05:40;;;;;;;1.10;0.57;;;;;;;-142.37;100.00;59669.53;5073193;28;20382;-61
2021/05/19 00:08:09;;;;;;;1.20;0.40;;;;;;;-142.37;100.00;59669.53;5074383;28;20032;-61
2021/05/19 00:10:38;;;;;;;0.80;0.60;;;;;;;-142.37;100.00;59669.53;5074217;28;20062;-61
2021/05/19 00:13:04;;;;;;;1.23;0.50;;;;;;;-142.37;100.00;59669.53;5074349;28;20024;-61
2021/05/19 00:15:30;;;;;;;1.83;0.60;;;;;;;-142.37;100.00;59669.53;5073195;28;20060;-61
2021/05/19 00:18:01;;;;;;;1.08;0.40;;;;;;;-142.37;100.00;59669.53;5074522;28;20078;-62
2021/05/19 00:20:26;;;;;;;1.13;0.70;;;;;;;-142.37;100.00;59669.53;5073690;28;20024;-61
2021/05/19 00:22:52;;;;;;;1.52;0.52;;;;;;;-142.37;100.00;59669.53;5074099;28;20505;-61
2021/05/19 00:25:17;;;;;;;2.53;0.52;;;;;;;-142.37;100.00;59669.53;5074068;28;20036;-61
2021/05/19 00:27:42;;;;;;;0.50;0.28;;;;;;;-142.37;100.00;59669.53;5073795;28;20028;-61
2021/05/19 00:30:14;;;;;;;0.93;0.40;;;;;;;-142.37;100.00;59669.53;5073876;28;20066;-61
2021/05/19 00:32:40;;;;;;;0.60;0.25;;;;;;;-142.37;100.00;59669.53;5073669;28;20103;-61
2021/05/19 00:35:06;;;;;;;0.63;0.43;;;;;;;-142.37;100.00;59669.53;5073472;28;20028;-61
2021/05/19 00:37:32;;;;;;;1.95;0.55;;;;;;;-142.37;100.00;59669.53;5064206;28;20033;-61
2021/05/19 00:39:58;;;;;;;1.08;0.50;;;;;;;-142.37;100.00;59669.53;5053968;28;20053;-61
2021/05/19 00:42:23;;;;;;;1.33;0.70;;;;;;;-142.37;100.00;59669.53;5053514;28;20086;-60
2021/05/19 00:44:48;;;;;;;0.73;0.32;;;;;;;-142.37;100.00;59669.53;5053563;28;20380;-60
2021/05/19 00:47:29;;;;;;;1.65;0.40;;;;;;;-142.37;100.00;59669.53;5053705;28;20025;-61
2021/05/19 00:49:55;;;;;;;1.73;0.68;;;;;;;-142.37;100.00;59669.53;5053650;28;20055;-61
2021/05/19 00:52:20;;;;;;;0.90;0.40;;;;;;;-142.37;100.00;59669.53;5053461;28;20368;-61
2021/05/19 00:54:45;;;;;;;1.30;0.65;;;;;;;-142.37;100.00;59669.53;5053399;28;20041;-61
2021/05/19 00:57:11;;;;;;;1.30;0.40;;;;;;;-142.37;100.00;59669.53;5053512;28;20017;-60
2021/05/19 00:59:36;;;;;;;2.20;0.50;;;;;;;-142.37;100.00;59669.53;5053160;28;20349;-60
2021/05/19 01:02:01;;;;;;;1.42;0.50;;;;;;;-142.37;100.00;59669.53;5053687;28;20490;-60
2021/05/19 01:04:27;;;;;;;0.63;0.38;;;;;;;-142.37;100.00;59669.53;5060791;28;20458;-61
2021/05/19 01:06:58;;;;;;;0.80;0.20;;;;;;;-142.37;100.00;59669.53;5073223;28;20414;-61
2021/05/19 01:09:35;;;;;;;0.65;0.30;;;;;;;-142.37;100.00;59669.53;5073091;28;20029;-61
2021/05/19 01:12:05;;;;;;;0.52;0.40;;;;;;;-142.37;100.00;59669.53;5073145;28;20025;-60
2021/05/19 01:14:33;;;;;;;1.70;0.60;;;;;;;-142.37;100.00;59669.53;5072822;28;20028;-60
2021/05/19 01:16:58;;;;;;;1.15;0.40;;;;;;;-142.37;100.00;59669.53;5073134;28;20484;-60
2021/05/19 01:19:26;;;;;;;0.82;0.40;;;;;;;-142.37;100.00;59669.53;5072889;28;20027;-61
2021/05/19 01:21:54;;;;;;;0.98;0.40;;;;;;;-142.37;100.00;59669.53;5073137;28;20052;-60
2021/05/19 01:24:20;;;;;;;2.00;0.50;;;;;;;-142.37;100.00;59669.53;5072818;28;20033;-61
2021/05/19 01:26:46;;;;;;;1.13;0.60;;;;;;;-142.37;100.00;59669.53;5072692;28;20028;-60
2021/05/19 01:29:11;;;;;;;1.42;0.38;;;;;;;-142.37;100.00;59669.53;5072953;28;20021;-60
2021/05/19 01:31:36;;;;;;;1.75;0.60;;;;;;;-142.37;100.00;59669.53;5072718;28;20376;-61
2021/05/19 01:34:02;;;;;;;2.38;0.70;;;;;;;-142.37;100.00;59669.53;5072482;28;20111;-61
2021/05/19 01:36:28;;;;;;;1.92;0.63;;;;;;;-142.37;100.00;59669.53;5072858;28;20069;-61
2021/05/19 01:38:53;;;;;;;1.80;0.88;;;;;;;-142.37;100.00;59669.53;5072730;28;20414;-61
2021/05/19 01:41:18;;;;;;;1.10;0.55;;;;;;;-142.37;100.00;59669.53;5072791;28;20036;-61
2021/05/19 01:43:44;;;;;;;2.80;0.60;;;;;;;-142.37;100.00;59669.53;5071318;28;20471;-61
2021/05/19 01:46:10;;;;;;;2.28;0.85;;;;;;;-142.37;100.00;59669.53;5072603;28;20029;-61
2021/05/19 01:48:35;;;;;;;1.42;0.47;;;;;;;-142.37;100.00;59669.53;5072467;28;20028;-61
2021/05/19 01:51:03;;;;;;;0.88;0.45;;;;;;;-142.37;100.00;59669.53;5072691;28;20494;-61
2021/05/19 01:53:31;;;;;;;0.57;0.30;;;;;;;-142.37;100.00;59669.53;5072494;28;20310;-61
2021/05/19 01:55:58;;;;;;;1.67;0.60;;;;;;;-142.37;100.00;59669.53;5072614;28;20109;-61
2021/05/19 01:58:24;;;;;;;0.82;0.52;;;;;;;-142.37;100.00;59669.53;5072373;28;20020;-61
2021/05/19 02:00:49;;;;;;;0.95;0.40;;;;;;;-142.37;100.00;59669.53;5072581;28;20460;-61
2021/05/19 02:03:14;;;;;;;1.58;0.50;;;;;;;-142.37;100.00;59669.53;5071739;28;20036;-61
2021/05/19 02:05:39;;;;;;;1.95;0.52;;;;;;;-142.37;100.00;59669.53;5052167;28;20021;-60
2021/05/19 02:08:07;;;;;;;1.55;0.50;;;;;;;-142.37;100.00;59669.53;5052412;28;20027;-61
2021/05/19 02:10:33;;;;;;;0.70;0.22;;;;;;;-142.37;100.00;59669.53;5050914;28;20025;-61
2021/05/19 02:13:00;;;;;;;1.33;0.47;;;;;;;-142.37;100.00;59669.53;5051093;28;20087;-61
2021/05/19 02:15:26;;;;;;;0.70;0.50;;;;;;;-142.37;100.00;59669.53;5050986;28;20021;-60
2021/05/19 02:17:51;;;;;;;0.90;0.38;;;;;;;-142.37;100.00;59669.53;5051051;28;20040;-61
2021/05/19 02:20:18;;;;;;;1.08;0.40;;;;;;;-142.37;100.00;59669.53;5052005;28;20075;-61
2021/05/19 02:22:44;;;;;;;1.60;0.63;;;;;;;-142.37;100.00;59669.53;5050803;28;20025;-61
2021/05/19 02:25:11;;;;;;;1.33;0.30;;;;;;;-142.37;100.00;59669.53;5052163;28;20029;-61
2021/05/19 02:27:37;;;;;;;1.15;0.50;;;;;;;-142.37;100.00;59669.53;5052076;28;20457;-60
2021/05/19 02:30:06;;;;;;;1.25;0.50;;;;;;;-142.37;100.00;59669.53;5068299;28;20103;-60
2021/05/19 02:32:32;;;;;;;2.08;0.95;;;;;;;-142.37;100.00;59669.53;5071939;28;20372;-60
2021/05/19 02:34:57;;;;;;;2.67;0.98;;;;;;;-142.37;100.00;59669.53;5071298;28;20047;-61
2021/05/19 02:37:22;;;;;;;1.40;0.50;;;;;;;-142.37;100.00;59669.53;5072088;28;20032;-61
2021/05/19 02:39:48;;;;;;;2.05;0.93;;;;;;;-142.37;100.00;59669.53;5073902;28;20183;-60
2021/05/19 02:42:13;;;;;;;1.27;0.50;;;;;;;-142.37;100.00;59669.53;5074779;28;20115;-61
2021/05/19 02:44:39;;;;;;;1.52;0.25;;;;;;;-142.37;100.00;59669.53;5074832;28;20020;-60
2021/05/19 02:47:05;;;;;;;0.68;0.38;;;;;;;-142.37;100.00;59669.53;5075972;28;20029;-61
2021/05/19 02:49:30;;;;;;;0.75;0.47;;;;;;;-142.37;100.00;59669.53;5075490;28;20095;-61
2021/05/19 02:51:56;;;;;;;0.93;0.40;;;;;;;-142.37;100.00;59669.53;5075877;28;20073;-61
2021/05/19 02:54:21;;;;;;;0.75;0.50;;;;;;;-142.37;100.00;59669.53;5075994;28;20063;-61
2021/05/19 02:56:46;;;;;;;0.85;0.40;;;;;;;-142.37;100.00;59669.53;5075652;28;20146;-61
2021/05/19 02:59:12;;;;;;;0.68;0.30;;;;;;;-142.37;100.00;59669.53;5075698;28;20012;-61
2021/05/19 03:01:37;;;;;;;0.90;0.43;;;;;;;-142.37;100.00;59669.53;5075463;28;20450;-61
2021/05/19 03:04:03;;;;;;;1.10;0.40;;;;;;;-142.37;100.00;59669.53;5074784;28;20034;-61
2021/05/19 03:06:28;;;;;;;2.33;0.52;;;;;;;-142.37;100.00;59669.53;5075634;28;20034;-61
2021/05/19 03:08:54;;;;;;;1.25;0.50;;;;;;;-142.37;100.00;59669.53;5075504;28;20016;-61
2021/05/19 03:11:21;;;;;;;1.25;0.43;;;;;;;-142.37;100.00;59669.53;5075457;28;20440;-61
2021/05/19 03:13:46;;;;;;;0.98;0.45;;;;;;;-142.37;100.00;59669.53;5075281;28;20373;-61
2021/05/19 03:16:11;;;;;;;0.70;0.43;;;;;;;-142.37;100.00;59669.53;5075652;28;20024;-61
2021/05/19 03:18:37;;;;;;;0.40;0.22;;;;;;;-142.37;100.00;59669.53;5075164;28;20076;-61
2021/05/19 03:21:03;;;;;;;0.77;0.30;;;;;;;-142.37;100.00;59669.53;5075190;28;20149;-61
2021/05/19 03:23:29;;;;;;;2.53;0.75;;;;;;;-142.37;100.00;59669.53;5075088;28;20108;-61
2021/05/19 03:25:56;;;;;;;0.98;0.65;;;;;;;-142.37;100.00;59669.53;5073924;28;20020;-60
2021/05/19 03:28:22;;;;;;;2.35;0.50;;;;;;;-142.37;100.00;59669.53;5074816;28;20028;-60
2021/05/19 03:30:47;;;;;;;1.67;0.50;;;;;;;-142.37;100.00;59669.53;5075086;28;20073;-60
2021/05/19 03:33:13;;;;;;;1.15;0.50;;;;;;;-142.37;100.00;59669.53;5074529;28;20494;-60
2021/05/19 03:35:38;;;;;;;2.28;0.63;;;;;;;-142.37;100.00;59669.53;5074501;28;20419;-61
2021/05/19 03:38:04;;;;;;;1.25;0.47;;;;;;;-142.37;100.00;59669.53;5075035;28;20024;-61
2021/05/19 03:40:30;;;;;;;1.80;0.60;;;;;;;-142.37;100.00;59669.53;5074687;28;20021;-61
2021/05/19 03:42:56;;;;;;;0.82;0.43;;;;;;;-142.37;100.00;59669.53;5073707;28;20519;-61
2021/05/19 03:45:23;;;;;;;1.85;0.32;;;;;;;-142.37;100.00;59669.53;5074842;28;20032;-61
2021/05/19 03:47:51;;;;;;;1.33;0.50;;;;;;;-142.37;100.00;59669.53;5075110;28;20055;-60
2021/05/19 03:50:18;;;;;;;0.90;0.40;;;;;;;-142.37;100.00;59669.53;5073463;28;20518;-60
2021/05/19 03:52:44;;;;;;;2.72;0.82;;;;;;;-142.37;100.00;59669.53;5074609;28;20029;-60
2021/05/19 03:55:11;;;;;;;1.13;0.47;;;;;;;-142.37;100.00;59669.53;5074801;28;20057;-60
2021/05/19 03:57:37;;;;;;;0.85;0.30;;;;;;;-142.37;100.00;59669.53;5074439;28;20028;-60
2021/05/19 04:00:06;;;;;;;1.33;0.55;;;;;;;-142.37;100.00;59669.53;5074508;28;20032;-60
2021/05/19 04:02:31;;;;;;;0.45;0.35;;;;;;;-142.37;100.00;59669.53;5074309;28;20098;-60
2021/05/19 04:04:56;;;;;;;0.77;0.32;;;;;;;-142.37;100.00;59669.53;5055738;28;20449;-60
2021/05/19 04:07:22;;;;;;;1.17;0.30;;;;;;;-142.37;100.00;59669.53;5054377;28;20029;-60
2021/05/19 04:09:47;;;;;;;2.13;0.35;;;;;;;-142.37;100.00;59669.53;5054284;28;20017;-60
2021/05/19 04:12:12;;;;;;;1.13;0.82;;;;;;;-142.37;100.00;59669.53;5054386;28;20025;-60
2021/05/19 04:14:38;;;;;;;2.63;0.52;;;;;;;-142.37;100.00;59669.53;5073366;28;20025;-62
2021/05/19 04:17:03;;;;;;;0.70;0.40;;;;;;;-142.37;100.00;59669.53;5074340;28;20032;-60
2021/05/19 04:19:28;;;;;;;0.70;0.38;;;;;;;-142.37;100.00;59669.53;5073974;28;20522;-60
2021/05/19 04:21:54;;;;;;;1.45;0.40;;;;;;;-142.37;100.00;59669.53;5074002;28;20092;-60
2021/05/19 04:24:19;;;;;;;1.30;0.28;;;;;;;-142.37;100.00;59669.53;5073994;28;20035;-61
2021/05/19 04:26:44;;;;;;;0.55;0.38;;;;;;;-142.37;100.00;59669.53;5073951;28;20020;-60
2021/05/19 04:29:09;;;;;;;0.57;0.20;;;;;;;-142.37;100.00;59669.53;5074002;28;20016;-61
2021/05/19 04:31:35;;;;;;;0.85;0.30;;;;;;;-142.37;100.00;59669.53;5072523;28;20464;-61
2021/05/19 04:34:00;;;;;;;1.30;0.60;;;;;;;-142.37;100.00;59669.53;5073360;28;20072;-61
2021/05/19 04:36:26;;;;;;;1.77;0.40;;;;;;;-142.37;100.00;59669.53;5073626;28;20032;-61
2021/05/19 04:38:51;;;;;;;2.55;0.35;;;;;;;-142.37;100.00;59669.53;5073787;28;20483;-61
2021/05/19 04:41:17;;;;;;;1.98;0.30;;;;;;;-142.37;100.00;59669.53;5073827;28;20020;-61
2021/05/19 04:43:43;;;;;;;0.98;0.30;;;;;;;-142.37;100.00;59669.53;5073598;28;20066;-61
2021/05/19 04:46:08;;;;;;;0.40;0.35;;;;;;;-142.37;100.00;59669.53;5073661;28;20440;-61
2021/05/19 04:48:34;;;;;;;0.80;0.30;;;;;;;-142.37;100.00;59669.53;5073520;28;20024;-61
2021/05/19 04:50:59;;;;;;;1.30;0.40;;;;;;;-142.37;100.00;59669.53;5073648;28;20455;-61
2021/05/19 04:53:24;;;;;;;1.83;0.40;;;;;;;-142.37;100.00;59669.53;5072211;28;20399;-60
2021/05/19 04:55:50;;;;;;;1.00;0.40;;;;;;;-142.37;100.00;59669.53;5069620;28;20039;-60
2021/05/19 04:58:15;;;;;;;1.45;0.50;;;;;;;-142.37;100.00;59669.53;5053437;28;20040;-61
2021/05/19 05:00:40;;;;;;;0.82;0.30;;;;;;;-142.37;100.00;59669.53;5052932;28;20488;-61
2021/05/19 05:03:08;;;;;;;1.48;0.40;;;;;;;-142.37;100.00;59669.53;5052043;28;20459;-61
2021/05/19 05:05:34;;;;;;;0.43;0.20;;;;;;;-142.37;100.00;59669.53;5051884;28;20115;-61
2021/05/19 05:07:59;;;;;;;1.00;0.40;;;;;;;-142.37;100.00;59669.53;5053378;28;20108;-61
2021/05/19 05:10:24;;;;;;;1.13;0.20;;;;;;;-142.37;100.00;59669.53;5053068;28;20029;-61
2021/05/19 05:12:50;;;;;;;0.60;0.47;;;;;;;-142.37;100.00;59669.53;5053133;28;20025;-61
2021/05/19 05:15:18;;;;;;;0.98;0.35;;;;;;;-142.37;100.00;59669.53;5053253;28;20021;-61
2021/05/19 05:17:43;;;;;;;0.70;0.30;;;;;;;-142.37;100.00;59669.53;5052971;28;20062;-61
2021/05/19 05:20:09;;;;;;;0.55;0.25;;;;;;;-142.37;100.00;59669.53;5052762;28;20033;-61
2021/05/19 05:22:36;;;;;;;2.25;0.85;;;;;;;-142.37;100.00;59669.53;5053437;28;20087;-61
2021/05/19 05:25:02;;;;;;;0.80;0.35;;;;;;;-142.37;100.00;59669.53;5052985;28;20025;-61
2021/05/19 05:27:27;;;;;;;1.13;0.30;;;;;;;-142.37;100.00;59669.53;5067804;28;20036;-61
2021/05/19 05:29:53;;;;;;;1.77;0.40;;;;;;;-142.37;100.00;59669.53;5072821;28;20058;-60
2021/05/19 05:32:18;;;;;;;0.70;0.30;;;;;;;-142.37;100.00;59669.53;5072781;28;20113;-61
2021/05/19 05:34:43;;;;;;;0.88;0.25;;;;;;;-142.37;100.00;59669.53;5072736;28;20536;-61
2021/05/19 05:37:09;;;;;;;1.50;0.25;;;;;;;-142.37;100.00;59669.53;5072887;28;20035;-62
2021/05/19 05:39:34;;;;;;;1.75;0.40;;;;;;;-142.37;100.00;59669.53;5072589;28;20414;-61
2021/05/19 05:42:00;;;;;;;1.58;0.35;;;;;;;-142.37;100.00;59669.53;5072794;28;20024;-61
2021/05/19 05:44:25;;;;;;;1.35;0.20;;;;;;;-142.37;100.00;59669.53;5072549;28;20127;-61
2021/05/19 05:46:50;;;;;;;0.75;0.30;;;;;;;-142.37;100.00;59669.53;5072878;28;20021;-61
2021/05/19 05:49:15;;;;;;;0.40;0.20;;;;;;;-142.37;100.00;59669.53;5072737;28;20021;-61
2021/05/19 05:51:41;;;;;;;2.00;0.50;;;;;;;-142.37;100.00;59669.53;5072470;28;20379;-61
2021/05/19 05:54:06;;;;;;;1.20;0.40;;;;;;;-142.37;100.00;59669.53;5072594;28;20039;-61
2021/05/19 05:56:32;;;;;;;0.63;0.35;;;;;;;-142.37;100.00;59669.53;5071673;28;20025;-60
2021/05/19 05:58:57;;;;;;;1.90;0.30;;;;;;;-142.37;100.00;59669.53;5068071;28;20083;-61
2021/05/19 06:01:22;;;;;;;0.80;0.20;;;;;;;-142.37;100.00;59669.53;5052334;28;20062;-60
2021/05/19 06:03:48;;;;;;;0.88;0.20;;;;;;;-142.37;100.00;59669.53;5052493;28;20056;-61
2021/05/19 06:06:13;;;;;;;0.85;0.32;;;;;;;-142.37;100.00;59669.53;5052450;28;20017;-61
2021/05/19 06:08:38;;;;;;;0.77;0.47;;;;;;;-142.37;100.00;59669.53;5052268;28;20017;-62
2021/05/19 06:11:07;;;;;;;1.27;0.20;;;;;;;-142.37;100.00;59669.53;5052758;28;20025;-62
2021/05/19 06:13:33;;;;;;;0.95;0.25;;;;;;;-142.37;100.00;59669.53;5053466;28;20044;-61
2021/05/19 06:15:59;;;;;;;1.13;0.30;;;;;;;-142.37;100.00;59669.53;5056577;28;20032;-62
2021/05/19 06:18:24;;;;;;;1.25;0.45;;;;;;;-142.37;100.00;59669.53;5056382;28;20174;-61
2021/05/19 06:20:50;;;;;;;1.50;0.40;;;;;;;-142.37;100.00;59669.53;5054923;28;20048;-61
2021/05/19 06:23:15;;;;;;;0.30;0.20;;;;;;;-142.37;100.00;59669.53;5071001;28;20020;-61
2021/05/19 06:25:40;;;;;;;1.05;0.20;;;;;;;-142.37;100.00;59669.53;5075520;28;20020;-60
2021/05/19 06:28:06;;;;;;;1.75;0.10;;;;;;;-142.37;100.00;59669.53;5069430;28;20025;-60
2021/05/19 06:30:31;;;;;;;0.40;0.10;;;;;;;-142.37;100.00;59669.53;5058634;28;20025;-61
2021/05/19 06:32:56;;;;;;;1.50;0.20;;;;;;;-142.37;100.00;59669.53;5057094;28;20598;-61
2021/05/19 06:35:22;;;;;;;0.63;0.20;;;;;;;-142.37;100.00;59669.53;5056093;28;20024;-60
2021/05/19 06:37:47;;;;;;;1.02;0.40;;;;;;;-142.37;100.00;59669.53;5068682;28;20206;-61
2021/05/19 06:40:12;;;;;;;0.90;0.22;;;;;;;-142.37;100.00;59669.53;5075847;28;20637;-60
2021/05/19 06:42:38;;;;;;;1.75;0.45;;;;;;;-142.37;100.00;59669.53;5074077;28;20021;-61
2021/05/19 06:45:04;;;;;;;0.10;0.10;;;;;;;-142.37;100.00;59669.53;5075940;28;20028;-61
2021/05/19 06:47:29;;;;;;;0.90;0.50;;;;;;;-142.37;100.00;59669.53;5075737;28;20031;-61
2021/05/19 06:49:54;;;;;;;1.17;0.10;;;;;;;-142.37;100.00;59669.53;5075283;28;20052;-61
2021/05/19 06:52:21;;;;;;;1.52;0.43;;;;;;;-142.37;100.00;59669.53;5065282;28;20029;-61
2021/05/19 06:54:47;;;;;;;1.02;0.30;;;;;;;-142.37;100.00;59669.53;5072691;28;20032;-61
2021/05/19 06:57:12;;;;;;;1.05;0.20;;;;;;;-142.37;100.00;59669.53;5065961;28;20399;-61
2021/05/19 06:59:37;;;;;;;0.57;0.20;;;;;;;-142.37;100.00;59669.53;5072954;28;20033;-61
2021/05/19 07:02:02;;;;;;;0.63;0.32;;;;;;;-142.37;100.00;59669.53;5073449;28;20016;-61
2021/05/19 07:04:28;;;;;;;1.98;0.30;;;;;;;-142.37;100.00;59669.53;5072904;28;20449;-61
2021/05/19 07:06:53;;;;;;;0.77;0.20;;;;;;;-142.37;100.00;59669.53;5073157;28;20435;-61
2021/05/19 07:09:19;;;;;;;1.33;0.30;;;;;;;-142.37;100.00;59669.53;5074397;28;20029;-61
2021/05/19 07:11:45;;;;;;;0.63;0.20;;;;;;;-142.37;100.00;59669.53;5069865;28;20020;-60
2021/05/19 07:14:15;;;;;;;0.93;0.20;;;;;;;-142.37;100.00;59669.53;5071863;28;20043;-60
2021/05/19 07:16:49;;;;;;;0.40;0.30;;;;;;;-142.37;100.00;59669.53;5072768;28;20024;-61
2021/05/19 07:19:14;;;;;;;1.48;0.20;;;;;;;-142.37;100.00;59669.53;5074088;28;20020;-61
2021/05/19 07:21:40;;;;;;;1.08;0.20;;;;;;;-142.37;100.00;59669.53;5073444;28;20117;-61
2021/05/19 07:24:06;;;;;;;1.85;0.57;;;;;;;-142.37;100.00;59669.53;5072987;28;20406;-61
2021/05/19 07:26:31;;;;;;;1.08;0.40;;;;;;;-142.37;100.00;59669.53;5071129;28;20024;-61
2021/05/19 07:28:56;;;;;;;1.38;0.45;;;;;;;-142.37;100.00;59669.53;5073881;28;20111;-61
2021/05/19 07:31:22;;;;;;;0.73;0.32;;;;;;;-142.37;100.00;59669.53;5071104;28;20062;-61
2021/05/19 07:33:48;;;;;;;0.70;0.25;;;;;;;-142.37;100.00;59669.53;5073526;28;20017;-61
2021/05/19 07:36:13;;;;;;;0.75;0.30;;;;;;;-142.37;100.00;59669.53;5066964;28;20051;-61
2021/05/19 07:38:38;;;;;;;0.38;0.20;;;;;;;-142.37;100.00;59669.53;5065104;28;20040;-61
2021/05/19 07:41:03;;;;;;;1.33;0.40;;;;;;;-142.37;100.00;59669.53;5065399;28;20106;-61
2021/05/19 07:43:29;;;;;;;1.60;0.30;;;;;;;-142.37;100.00;59669.53;5076283;28;20035;-61
2021/05/19 07:45:54;;;;;;;0.60;0.20;;;;;;;-142.37;100.00;59669.53;5074475;28;20036;-61
2021/05/19 07:48:19;;;;;;;0.38;0.15;;;;;;;-142.37;100.00;59669.53;5089694;28;20039;-61
2021/05/19 07:50:45;;;;;;;1.55;0.13;;;;;;;-142.37;100.00;59669.53;5085047;28;20056;-62
2021/05/19 07:53:10;;;;;;;1.48;0.38;;;;;;;-142.37;100.00;59669.53;5074562;28;20114;-62
2021/05/19 07:58:39;;;;;;;1.92;0.30;;;;;;;-142.37;100.00;59669.53;5049786;28;20052;-61
2021/05/19 08:01:24;;;;;;;1.67;0.40;;;;;;;-142.37;100.00;59669.53;5050892;28;20036;-61
2021/05/19 08:03:51;;;;;;;0.30;0.10;;;;;;;-142.37;100.00;59669.53;5053029;28;20033;-61
2021/05/19 08:06:17;;;;;;;1.67;0.30;;;;;;;-142.37;100.00;59669.53;5055762;28;20431;-61
2021/05/19 08:08:42;;;;;;;1.00;0.20;;;;;;;-142.37;100.00;59669.53;5050283;28;20041;-62
2021/05/19 08:11:07;;;;;;;0.75;0.13;;;;;;;-142.37;100.00;59669.53;5046378;28;20531;-62
2021/05/19 08:13:39;;;;;;;1.23;0.20;;;;;;;-142.37;100.00;59669.53;5053165;28;20032;-62
2021/05/19 08:16:04;;;;;;;1.30;0.22;;;;;;;-142.37;100.00;59669.53;5047178;28;20098;-61
2021/05/19 08:18:30;;;;;;;1.50;0.32;;;;;;;-142.37;100.00;59669.53;5050629;28;20037;-62
2021/05/19 08:20:55;;;;;;;0.80;0.10;;;;;;;-142.37;100.00;59669.53;5046330;28;20045;-62
2021/05/19 08:23:20;;;;;;;1.25;0.20;;;;;;;-142.37;100.00;59669.53;5050525;28;20041;-62
2021/05/19 08:25:45;;;;;;;1.08;0.20;;;;;;;-142.37;100.00;59669.53;5053323;28;20564;-63
2021/05/19 08:28:11;;;;;;;2.20;0.50;;;;;;;-142.37;100.00;59669.53;5051439;28;20037;-61
2021/05/19 08:30:36;;;;;;;0.82;0.20;;;;;;;-142.37;100.00;59669.53;5050523;28;20044;-61
2021/05/19 08:33:01;;;;;;;1.45;0.28;;;;;;;-142.37;100.00;59669.53;5040344;28;20569;-60
2021/05/19 08:35:26;;;;;;;1.08;0.20;;;;;;;-142.37;100.00;59669.53;5051905;28;20267;-60
2021/05/19 08:37:52;;;;;;;1.25;0.20;;;;;;;-142.37;100.00;59669.53;5053903;28;20021;-61
2021/05/19 08:40:17;;;;;;;1.38;0.28;;;;;;;-142.37;100.00;59669.53;5073457;28;20036;-61
2021/05/19 08:42:42;;;;;;;2.53;0.30;;;;;;;-142.37;100.00;59669.53;5057298;28;20355;-61
2021/05/19 08:45:10;;;;;;;1.98;0.30;;;;;;;-142.37;100.00;59669.53;5053944;28;20106;-60
2021/05/19 08:47:35;;;;;;;0.40;0.10;;;;;;;-142.37;100.00;59669.53;5052333;28;20028;-60
2021/05/19 08:50:03;;;;;;;2.25;0.30;;;;;;;-142.37;100.00;59669.53;5059821;28;20067;-60
2021/05/19 08:52:28;;;;;;;1.55;0.70;;;;;;;-142.37;100.00;59669.53;5071129;28;20111;-61
2021/05/19 08:54:55;;;;;;;1.08;0.20;;;;;;;-142.37;100.00;59669.53;5067964;28;20110;-60
2021/05/19 08:57:22;;;;;;;1.27;0.40;;;;;;;-142.37;100.00;59669.53;5067202;28;20020;-60
2021/05/19 08:59:47;;;;;;;0.63;0.10;;;;;;;-142.37;100.00;59669.53;5063620;28;20031;-59
2021/05/19 09:02:15;;;;;;;1.98;0.50;;;;;;;-142.37;100.00;59669.53;5069198;28;20141;-59
2021/05/19 09:04:41;;;;;;;1.67;0.32;;;;;;;-142.37;100.00;59669.53;5070219;28;20420;-60
2021/05/19 09:07:09;;;;;;;0.20;0.15;;;;;;;-142.37;100.00;59669.53;5069173;28;20062;-60
2021/05/19 09:09:37;;;;;;;1.65;0.43;;;;;;;-142.37;100.00;59669.53;5068740;28;20020;-59
2021/05/19 09:12:08;;;;;;;1.08;0.40;;;;;;;-142.37;100.00;59669.53;5069697;28;20026;-59
2021/05/19 09:15:04;;;;;;;2.80;0.40;;;;;;;-142.37;100.00;59669.53;5070396;28;20055;-60
2021/05/19 09:17:32;;;;;;;0.77;0.20;;;;;;;-142.37;100.00;59669.53;5068887;28;20291;-60
2021/05/19 09:20:11;;;;;;;2.47;0.38;;;;;;;-142.37;100.00;59669.53;5073037;28;20056;-60
2021/05/19 09:22:42;;;;;;;0.82;0.28;;;;;;;-142.37;100.00;59669.53;5070374;28;20067;-61
2021/05/19 09:25:26;;;;;;;2.30;0.22;;;;;;;-142.37;100.00;59669.53;5071700;28;20020;-59
2021/05/19 09:27:58;;;;;;;0.20;0.10;;;;;;;-142.37;100.00;59669.53;5070160;28;20103;-60
2021/05/19 09:30:41;;;;;;;0.98;0.20;;;;;;;-142.37;100.00;59669.53;5068881;28;20484;-60
2021/05/19 09:33:16;;;;;;;0.57;0.13;;;;;;;-142.37;100.00;59669.53;5060621;28;20024;-60
2021/05/19 09:35:42;;;;;;;2.22;0.50;;;;;;;-142.37;100.00;59669.53;5066893;28;20016;-61
2021/05/19 09:38:28;;;;;;;0.35;0.10;;;;;;;-142.37;100.00;59669.53;5068368;28;20035;-60
2021/05/19 09:41:18;;;;;;;0.93;0.20;;;;;;;-142.37;100.00;59669.53;5058550;28;20508;-61
2021/05/19 09:43:45;;;;;;;0.38;0.20;;;;;;;-142.37;100.00;59669.53;5051639;28;20029;-61
2021/05/19 09:46:17;;;;;;;0.15;0.10;;;;;;;-142.37;100.00;59669.53;5061216;28;20020;-60
2021/05/19 09:48:43;;;;;;;0.82;0.20;;;;;;;-142.37;100.00;59669.53;5062321;28;20032;-61
2021/05/19 09:51:08;;;;;;;0.35;0.15;;;;;;;-142.37;100.00;59669.53;5059646;28;20082;-60
2021/05/19 09:53:34;;;;;;;0.40;0.20;;;;;;;-142.37;100.00;59669.53;5062645;28;20526;-61
2021/05/19 09:55:59;;;;;;;0.20;0.10;;;;;;;-142.37;100.00;59669.53;5071134;28;20104;-61
2021/05/19 09:58:32;;;;;;;1.37;0.40;;;;;;;-142.37;100.00;59669.53;5055566;28;20534;-61
2021/05/19 10:00:58;;;;;;;1.48;0.15;;;;;;;-142.37;100.00;59669.53;5049670;28;20669;-61
2021/05/19 10:03:23;;;;;;;0.77;0.20;;;;;;;-142.37;100.00;59669.53;5052728;28;20025;-60
2021/05/19 10:06:03;;;;;;;1.00;0.20;;;;;;;-142.37;100.00;59669.53;5062084;28;20051;-61
2021/05/19 10:08:29;;;;;;;0.55;0.30;;;;;;;-142.37;100.00;59669.53;5070120;28;20436;-60
2021/05/19 10:10:58;;;;;;;0.60;0.28;;;;;;;-142.37;100.00;59669.53;5070391;28;20060;-61
2021/05/19 10:13:24;;;;;;;0.75;0.47;;;;;;;-142.37;100.00;59669.53;5071043;28;20039;-60
2021/05/19 10:15:52;;;;;;;0.88;0.20;;;;;;;-142.37;100.00;59669.53;5070443;28;20028;-59
2021/05/19 10:18:22;;;;;;;0.85;0.30;;;;;;;-142.37;100.00;59669.53;5071732;28;20032;-61
2021/05/19 10:20:54;;;;;;;1.05;0.15;;;;;;;-142.37;100.00;59669.53;5058937;28;20345;-61
2021/05/19 10:23:32;;;;;;;2.08;0.28;;;;;;;-142.37;100.00;59669.53;5063417;28;20624;-59
2021/05/19 10:26:09;;;;;;;0.45;0.15;;;;;;;-142.37;100.00;59669.53;5072055;28;20571;-60
2021/05/19 10:28:40;;;;;;;0.98;0.20;;;;;;;-142.37;100.00;59669.53;5072088;28;20032;-61
2021/05/19 10:31:40;;;;;;;0.80;0.20;;;;;;;-142.37;100.00;59669.53;5071983;28;20056;-60
2021/05/19 10:34:05;;;;;;;1.17;0.20;;;;;;;-142.37;100.00;59669.53;5072360;28;20024;-61
2021/05/19 10:36:34;;;;;;;1.15;0.20;;;;;;;-142.37;100.00;59669.53;5070693;28;20024;-61
2021/05/19 10:39:09;;;;;;;1.10;0.55;;;;;;;-142.37;100.00;59669.53;5072258;28;20514;-60
2021/05/19 10:41:48;;;;;;;1.80;0.40;;;;;;;-142.37;100.00;59669.53;5072039;28;20066;-59
2021/05/19 10:44:15;;;;;;;0.50;0.20;;;;;;;-142.37;100.00;59669.53;5072411;28;20410;-59
2021/05/19 10:47:08;;;;;;;1.25;0.20;;;;;;;-142.37;100.00;59669.53;5071956;28;20028;-61
2021/05/19 10:49:42;;;;;;;0.73;0.17;;;;;;;-142.37;100.00;59669.53;5071068;28;20040;-60
2021/05/19 10:52:29;;;;;;;1.08;0.10;;;;;;;-142.37;100.00;59669.53;5070667;28;20391;-60
2021/05/19 10:57:58;;;;;;;1.00;0.20;;;;;;;-142.37;100.00;59669.53;5071389;28;20031;-61
2021/05/19 11:00:25;;;;;;;1.55;0.30;;;;;;;-142.37;100.00;59669.53;5072891;28;20412;-61
2021/05/19 11:02:54;;;;;;;0.43;0.20;;;;;;;-142.37;100.00;59669.53;5075633;28;20100;-61
2021/05/19 11:05:24;;;;;;;0.30;0.08;;;;;;;-142.37;100.00;59669.53;5075347;28;20415;-61
2021/05/19 11:08:05;;;;;;;0.28;0.10;;;;;;;-142.37;100.00;59669.53;5075617;28;20033;-60
2021/05/19 11:10:30;;;;;;;0.35;0.10;;;;;;;-142.37;100.00;59669.53;5075361;28;20024;-60
2021/05/19 11:12:56;;;;;;;2.63;0.40;;;;;;;-142.37;100.00;59669.53;5075554;28;20380;-60
2021/05/19 11:20:54;;;;;;;0.60;0.10;;;;;;;-142.37;100.00;59669.53;5072838;28;20044;-61